Time;durP1;ratioP1;P1;durP2;ratioP2;P2;SDS_P1;SDS_P2;PMS_P1;PMS_P2;Temp;Humidity;BMP_temperature;BMP_pressure;BME280_temperature;BME280_humidity;BME280_pressure;Samples;Min_cycle;Max_cycle;Signal;HPM_P1;HPM_P2
2023/06/16 00:02:04;;;;;;;2.53;2.37;;;;;;;14.12;100.00;100615.06;5051063;28;20225;-75
2023/06/16 00:04:29;;;;;;;0.40;0.40;;;;;;;14.19;100.00;100618.13;5050790;28;20707;-76
2023/06/16 00:06:56;;;;;;;1.77;1.67;;;;;;;14.19;100.00;100612.63;5050867;28;20202;-75
2023/06/16 00:09:23;;;;;;;1.10;1.03;;;;;;;14.08;100.00;100603.13;5050498;28;20179;-76
2023/06/16 00:11:48;;;;;;;2.10;2.00;;;;;;;14.02;100.00;100601.69;5050645;28;20199;-75
2023/06/16 00:14:14;;;;;;;1.13;1.13;;;;;;;14.00;100.00;100604.78;5050645;28;20209;-76
2023/06/16 00:16:40;;;;;;;1.50;1.40;;;;;;;14.00;100.00;100602.03;5051070;28;20182;-76
2023/06/16 00:19:05;;;;;;;1.53;1.43;;;;;;;13.98;100.00;100609.00;5050682;28;20175;-76
2023/06/16 00:21:37;;;;;;;0.47;0.47;;;;;;;13.94;100.00;100608.03;5050137;28;20241;-76
2023/06/16 00:24:05;;;;;;;1.63;1.53;;;;;;;13.90;100.00;100607.91;5050822;28;20677;-75
2023/06/16 00:26:30;;;;;;;2.07;1.93;;;;;;;13.79;100.00;100606.66;5050846;28;20179;-76
2023/06/16 00:28:56;;;;;;;1.03;0.77;;;;;;;13.72;100.00;100611.84;5050453;28;20197;-76
2023/06/16 00:31:21;;;;;;;2.30;2.10;;;;;;;13.66;100.00;100611.22;5050192;28;20281;-75
2023/06/16 00:33:47;;;;;;;1.57;1.47;;;;;;;13.69;100.00;100607.81;5050769;28;20198;-76
2023/06/16 00:36:12;;;;;;;8.83;1.57;;;;;;;13.66;100.00;100602.19;5050677;28;20217;-76
2023/06/16 00:38:37;;;;;;;1.27;1.17;;;;;;;13.72;100.00;100611.03;5050564;28;20266;-75
2023/06/16 00:41:02;;;;;;;0.70;0.70;;;;;;;13.80;100.00;100607.47;5050374;28;20263;-76
2023/06/16 00:43:28;;;;;;;0.43;0.43;;;;;;;13.77;100.00;100611.66;5050396;28;20203;-76
2023/06/16 00:45:53;;;;;;;7.53;2.40;;;;;;;13.75;100.00;100611.19;5049428;28;20218;-76
2023/06/16 00:48:20;;;;;;;3.20;0.63;;;;;;;13.73;100.00;100605.19;5050498;28;20263;-76
2023/06/16 00:50:46;;;;;;;0.20;0.20;;;;;;;13.72;100.00;100617.31;5050078;28;20190;-76
2023/06/16 00:53:11;;;;;;;1.67;1.37;;;;;;;13.71;100.00;100615.72;5050430;28;20202;-76
2023/06/16 00:55:37;;;;;;;1.00;1.00;;;;;;;13.64;100.00;100608.00;5050710;28;20182;-76
2023/06/16 00:58:03;;;;;;;9.03;1.27;;;;;;;13.60;100.00;100609.78;5053048;28;20202;-75
2023/06/16 01:00:32;;;;;;;0.70;0.70;;;;;;;13.62;100.00;100612.22;5054833;28;20179;-76
2023/06/16 01:02:57;;;;;;;0.70;0.70;;;;;;;13.62;100.00;100603.97;5054543;28;20677;-76
2023/06/16 01:05:24;;;;;;;0.80;0.80;;;;;;;13.60;100.00;100609.00;5054424;28;20259;-75
2023/06/16 01:07:53;;;;;;;3.53;1.50;;;;;;;13.59;100.00;100610.09;5054331;28;20182;-76
2023/06/16 01:10:29;;;;;;;0.00;0.00;;;;;;;13.64;100.00;100605.25;5054152;28;20554;-75
2023/06/16 01:13:16;;;;;;;2.87;0.97;;;;;;;13.69;100.00;100610.56;5054173;28;20206;-76
2023/06/16 01:15:45;;;;;;;1.43;1.37;;;;;;;13.58;100.00;100605.75;5054316;28;20179;-76
2023/06/16 01:18:14;;;;;;;0.40;0.40;;;;;;;13.51;100.00;100606.25;5054070;28;20672;-76
2023/06/16 01:20:49;;;;;;;0.47;0.47;;;;;;;13.47;100.00;100612.72;5054040;28;20186;-76
2023/06/16 01:23:28;;;;;;;0.53;0.53;;;;;;;13.41;100.00;100609.34;5054044;28;20201;-76
2023/06/16 01:25:58;;;;;;;1.47;1.27;;;;;;;13.30;100.00;100605.31;5054215;28;20187;-74
2023/06/16 01:28:25;;;;;;;4.47;3.60;;;;;;;13.19;100.00;100604.88;5053804;28;20566;-76
2023/06/16 01:30:52;;;;;;;0.93;0.87;;;;;;;13.21;100.00;100612.78;5053581;28;20240;-76
2023/06/16 01:33:23;;;;;;;1.17;1.13;;;;;;;13.13;100.00;100610.81;5053862;28;20290;-76
2023/06/16 01:35:50;;;;;;;2.70;2.50;;;;;;;13.06;100.00;100603.06;5053965;28;20191;-76
2023/06/16 01:38:16;;;;;;;2.23;2.10;;;;;;;13.00;100.00;100613.38;5053806;28;20183;-76
2023/06/16 01:40:43;;;;;;;1.23;1.20;;;;;;;12.99;100.00;100600.81;5051919;28;20183;-74
2023/06/16 01:43:09;;;;;;;9.07;1.80;;;;;;;13.02;100.00;100599.38;5053579;28;20746;-76
2023/06/16 01:45:36;;;;;;;0.87;0.87;;;;;;;13.07;100.00;100604.69;5053657;28;20207;-76
2023/06/16 01:48:02;;;;;;;0.40;0.40;;;;;;;13.12;100.00;100599.03;5053737;28;20542;-76
2023/06/16 01:50:27;;;;;;;0.63;0.63;;;;;;;13.19;100.00;100606.81;5053256;28;20187;-76
2023/06/16 01:52:53;;;;;;;1.27;1.17;;;;;;;13.22;100.00;100592.44;5053413;28;20261;-76
2023/06/16 01:55:18;;;;;;;0.83;0.83;;;;;;;13.23;100.00;100594.84;5053395;28;20278;-76
2023/06/16 01:57:43;;;;;;;15.83;2.53;;;;;;;13.24;100.00;100592.91;5053301;28;20245;-75
2023/06/16 02:00:15;;;;;;;1.70;1.13;;;;;;;13.26;100.00;100596.13;5053121;28;20715;-76
2023/06/16 02:02:49;;;;;;;0.00;0.00;;;;;;;13.30;100.00;100600.63;5053360;28;20223;-76
2023/06/16 02:05:20;;;;;;;2.40;2.30;;;;;;;13.34;100.00;100592.56;5053445;28;20225;-76
2023/06/16 02:07:48;;;;;;;0.83;0.83;;;;;;;13.27;100.00;100592.25;5052884;28;20186;-76
2023/06/16 02:10:15;;;;;;;0.20;0.20;;;;;;;13.28;100.00;100591.13;5052753;28;20312;-76
2023/06/16 02:12:41;;;;;;;2.00;0.93;;;;;;;13.26;100.00;100594.19;5053066;28;20576;-76
2023/06/16 02:15:08;;;;;;;3.27;1.00;;;;;;;13.14;100.00;100598.69;5053286;28;20270;-76
2023/06/16 02:17:33;;;;;;;2.40;2.20;;;;;;;13.01;100.00;100592.25;5053141;28;20187;-76
2023/06/16 02:19:58;;;;;;;1.83;1.73;;;;;;;12.88;100.00;100587.75;5052630;28;20262;-75
2023/06/16 02:22:24;;;;;;;0.80;0.80;;;;;;;12.77;100.00;100598.25;5052700;28;20642;-76
2023/06/16 02:24:49;;;;;;;1.13;1.13;;;;;;;12.78;100.00;100602.59;5053014;28;20189;-76
2023/06/16 02:27:14;;;;;;;3.03;1.43;;;;;;;12.76;100.00;100608.41;5052895;28;20268;-75
2023/06/16 02:29:41;;;;;;;1.17;1.17;;;;;;;12.77;100.00;100614.69;5052167;28;20179;-75
2023/06/16 02:32:06;;;;;;;1.97;1.87;;;;;;;12.75;100.00;100612.28;5052656;28;20273;-74
2023/06/16 02:34:32;;;;;;;0.50;0.50;;;;;;;12.80;100.00;100614.03;5052685;28;20741;-76
2023/06/16 02:36:58;;;;;;;0.57;0.57;;;;;;;12.88;100.00;100604.22;5052659;28;20198;-75
2023/06/16 02:39:24;;;;;;;0.27;0.27;;;;;;;12.92;100.00;100603.25;5050856;28;20711;-76
2023/06/16 02:41:50;;;;;;;2.00;1.77;;;;;;;13.00;100.00;100607.91;5052717;28;20203;-76
2023/06/16 02:44:15;;;;;;;0.97;0.97;;;;;;;13.01;100.00;100615.00;5052489;28;20203;-76
2023/06/16 02:46:40;;;;;;;2.57;2.47;;;;;;;13.04;100.00;100600.66;5052522;28;20194;-76
2023/06/16 02:49:06;;;;;;;1.57;1.47;;;;;;;13.04;100.00;100600.66;5052412;28;20183;-76
2023/06/16 02:51:31;;;;;;;0.60;0.60;;;;;;;13.04;100.00;100603.41;5051949;28;20234;-75
2023/06/16 02:53:59;;;;;;;4.17;1.80;;;;;;;13.05;100.00;100607.75;5052287;28;20685;-76
2023/06/16 02:56:25;;;;;;;1.43;1.33;;;;;;;13.06;100.00;100609.38;5052362;28;20245;-76
2023/06/16 02:58:50;;;;;;;1.27;1.17;;;;;;;13.08;100.00;100612.59;5052136;28;20634;-76
2023/06/16 03:01:15;;;;;;;0.70;0.70;;;;;;;13.10;100.00;100606.78;5051886;28;20258;-75
2023/06/16 03:03:40;;;;;;;1.73;1.63;;;;;;;13.11;100.00;100600.97;5052046;28;20199;-76
2023/06/16 03:06:07;;;;;;;0.80;0.80;;;;;;;13.15;100.00;100608.53;5052083;28;20211;-75
2023/06/16 03:08:32;;;;;;;0.00;0.00;;;;;;;13.16;100.00;100605.47;5052477;28;20611;-76
2023/06/16 03:10:58;;;;;;;1.20;1.13;;;;;;;13.23;100.00;100605.00;5050361;28;20273;-75
2023/06/16 03:13:23;;;;;;;0.97;0.97;;;;;;;13.23;100.00;100611.31;5051922;28;20207;-76
2023/06/16 03:15:50;;;;;;;0.83;0.83;;;;;;;13.25;100.00;100597.25;5051979;28;20193;-76
2023/06/16 03:18:16;;;;;;;1.20;1.20;;;;;;;13.30;100.00;100600.63;5051809;28;20210;-76
2023/06/16 03:20:45;;;;;;;0.27;0.27;;;;;;;13.33;100.00;100602.75;5050759;28;20635;-76
2023/06/16 03:23:11;;;;;;;0.10;0.10;;;;;;;13.35;100.00;100610.66;5051773;28;20199;-75
2023/06/16 03:25:37;;;;;;;0.43;0.43;;;;;;;13.38;100.00;100599.81;5051848;28;20179;-76
2023/06/16 03:28:02;;;;;;;1.03;0.90;;;;;;;13.40;100.00;100604.97;5051605;28;20553;-76
2023/06/16 03:30:28;;;;;;;0.93;0.80;;;;;;;13.44;100.00;100599.63;5051329;28;20207;-76
2023/06/16 03:32:54;;;;;;;1.50;1.50;;;;;;;13.45;100.00;100613.03;5051913;28;20245;-76
2023/06/16 03:35:19;;;;;;;3.07;1.63;;;;;;;13.46;100.00;100605.63;5050042;28;20183;-76
2023/06/16 03:37:45;;;;;;;1.63;1.33;;;;;;;13.46;100.00;100603.69;5051551;28;20187;-76
2023/06/16 03:40:10;;;;;;;0.77;0.67;;;;;;;13.44;100.00;100616.91;5049812;28;20225;-76
2023/06/16 03:42:36;;;;;;;0.53;0.53;;;;;;;13.43;100.00;100607.06;5051338;28;20209;-76
2023/06/16 03:45:03;;;;;;;0.87;0.87;;;;;;;13.44;100.00;100616.09;5051553;28;20554;-77
2023/06/16 03:47:29;;;;;;;1.03;1.00;;;;;;;13.41;100.00;100614.81;5051370;28;20187;-77
2023/06/16 03:49:54;;;;;;;2.77;1.80;;;;;;;13.40;100.00;100619.50;5052524;28;20557;-76
2023/06/16 03:52:20;;;;;;;0.43;0.43;;;;;;;13.40;100.00;100616.75;5049820;28;20566;-75
2023/06/16 03:54:46;;;;;;;0.93;0.93;;;;;;;13.43;100.00;100618.03;5051308;28;20187;-74
2023/06/16 03:57:12;;;;;;;0.67;0.67;;;;;;;13.48;100.00;100615.16;5051318;28;20337;-76
2023/06/16 03:59:38;;;;;;;1.87;1.77;;;;;;;13.47;100.00;100620.97;5051171;28;20669;-77
2023/06/16 04:02:07;;;;;;;1.97;1.87;;;;;;;13.47;100.00;100620.97;5051059;28;20202;-76
2023/06/16 04:04:36;;;;;;;2.00;1.80;;;;;;;13.46;100.00;100619.34;5049576;28;20685;-76
2023/06/16 04:07:03;;;;;;;0.63;0.60;;;;;;;13.52;100.00;100626.28;5049832;28;20191;-76
2023/06/16 04:09:30;;;;;;;1.10;1.03;;;;;;;13.55;100.00;100623.69;5050489;28;20205;-77
2023/06/16 04:11:55;;;;;;;1.13;1.03;;;;;;;13.60;100.00;100631.75;5051075;28;20656;-76
2023/06/16 04:14:20;;;;;;;1.90;1.80;;;;;;;13.60;100.00;100620.78;5052528;28;20286;-80
2023/06/16 04:16:46;;;;;;;1.20;0.90;;;;;;;13.58;100.00;100631.25;5052985;28;20189;-75
2023/06/16 04:19:11;;;;;;;0.80;0.80;;;;;;;13.59;100.00;100623.81;5050660;28;20205;-75
2023/06/16 04:21:37;;;;;;;1.70;1.60;;;;;;;13.64;100.00;100631.91;5050643;28;20178;-76
2023/06/16 04:24:04;;;;;;;0.53;0.53;;;;;;;13.69;100.00;100632.53;5050691;28;20749;-76
2023/06/16 04:26:30;;;;;;;0.80;0.80;;;;;;;13.73;100.00;100629.91;5051142;28;20261;-76
2023/06/16 04:28:55;;;;;;;0.30;0.30;;;;;;;13.77;100.00;100627.34;5051269;28;20182;-76
2023/06/16 04:31:28;;;;;;;0.10;0.10;;;;;;;13.81;100.00;100629.09;5049719;28;20565;-76
2023/06/16 04:33:56;;;;;;;0.10;0.10;;;;;;;13.80;100.00;100624.75;5050849;28;20241;-76
2023/06/16 04:36:22;;;;;;;0.83;0.83;;;;;;;13.80;100.00;100630.22;5050794;28;20677;-76
2023/06/16 04:38:48;;;;;;;1.30;1.30;;;;;;;13.81;100.00;100623.59;5049263;28;20328;-74
2023/06/16 04:41:13;;;;;;;0.67;0.67;;;;;;;13.79;100.00;100625.88;5050508;28;20653;-76
2023/06/16 04:43:39;;;;;;;0.43;0.43;;;;;;;13.80;100.00;100627.47;5050813;28;20297;-75
2023/06/16 04:46:04;;;;;;;0.80;0.80;;;;;;;13.81;100.00;100622.78;5032775;28;20726;-76
2023/06/16 04:48:30;;;;;;;0.53;0.53;;;;;;;13.85;100.00;100627.28;5050509;28;20183;-76
2023/06/16 04:50:57;;;;;;;1.60;1.50;;;;;;;13.84;100.00;100633.94;5050491;28;20288;-75
2023/06/16 04:53:22;;;;;;;0.00;0.00;;;;;;;13.89;100.00;100641.19;5050631;28;20267;-76
2023/06/16 04:55:47;;;;;;;0.43;0.43;;;;;;;13.94;100.00;100630.03;5050678;28;20183;-76
2023/06/16 04:58:13;;;;;;;0.47;0.47;;;;;;;13.94;100.00;100630.81;5050297;28;20194;-76
2023/06/16 05:00:38;;;;;;;0.77;0.77;;;;;;;13.98;100.00;100626.28;5050034;28;20225;-76
2023/06/16 05:03:03;;;;;;;0.63;0.50;;;;;;;13.96;100.00;100625.00;5050299;28;20281;-76
2023/06/16 05:05:28;;;;;;;1.80;0.97;;;;;;;13.97;100.00;100621.91;5050476;28;20186;-74
2023/06/16 05:07:54;;;;;;;0.43;0.43;;;;;;;14.04;100.00;100623.38;5050211;28;20183;-76
2023/06/16 05:10:19;;;;;;;0.33;0.30;;;;;;;14.13;100.00;100624.13;5049958;28;20190;-76
2023/06/16 05:12:44;;;;;;;0.30;0.30;;;;;;;14.17;100.00;100620.34;5050102;28;20244;-76
2023/06/16 05:15:10;;;;;;;1.00;1.00;;;;;;;14.29;100.00;100622.41;5050275;28;20267;-76
2023/06/16 05:17:37;;;;;;;0.47;0.47;;;;;;;14.37;100.00;100629.00;5050242;28;20225;-75
2023/06/16 05:20:02;;;;;;;0.00;0.00;;;;;;;14.45;100.00;100628.16;5049913;28;20183;-77
2023/06/16 05:22:28;;;;;;;0.00;0.00;;;;;;;14.51;100.00;100626.84;5050609;28;20183;-77
2023/06/16 05:24:54;;;;;;;5.93;1.70;;;;;;;14.66;100.00;100622.72;5050180;28;20210;-76
2023/06/16 05:27:23;;;;;;;1.07;1.07;;;;;;;14.64;100.00;100627.75;5055019;28;20178;-78
2023/06/16 05:29:54;;;;;;;1.10;1.07;;;;;;;14.69;100.00;100628.34;5054005;28;20183;-79
2023/06/16 05:32:21;;;;;;;0.10;0.10;;;;;;;14.67;100.00;100621.56;5052782;28;20568;-77
2023/06/16 05:34:47;;;;;;;0.80;0.80;;;;;;;14.67;100.00;100624.31;5051568;28;20213;-76
2023/06/16 05:37:16;;;;;;;0.10;0.10;;;;;;;14.68;100.00;100631.44;5050530;28;20618;-77
2023/06/16 05:39:45;;;;;;;0.00;0.00;;;;;;;14.78;100.00;100633.78;5051237;28;20183;-82
2023/06/16 05:42:11;;;;;;;0.30;0.30;;;;;;;14.83;99.36;100628.06;5052912;28;20620;-82
2023/06/16 05:44:37;;;;;;;0.00;0.00;;;;;;;14.86;97.62;100630.16;5053912;28;20231;-76
2023/06/16 05:49:38;;;;;;;4.70;1.47;;;;;;;14.83;96.84;100626.13;5236078;23;20471;-86
2023/06/16 05:52:05;;;;;;;0.03;0.03;;;;;;;14.83;96.79;100619.81;4995416;28;20701;-86
2023/06/16 05:54:31;;;;;;;0.00;0.00;;;;;;;14.83;96.52;100626.13;4995525;28;20184;-87
2023/06/16 05:57:03;;;;;;;1.63;1.53;;;;;;;14.89;96.73;100630.28;4996384;28;20204;-86
2023/06/16 05:59:28;;;;;;;0.10;0.10;;;;;;;14.90;96.20;100631.13;4996007;28;20209;-85
2023/06/16 06:02:12;;;;;;;0.17;0.17;;;;;;;14.95;96.14;100636.41;4995424;28;20622;-87
2023/06/16 06:04:38;;;;;;;0.00;0.00;;;;;;;14.93;96.54;100643.38;4986434;28;20193;-86
2023/06/16 06:07:04;;;;;;;0.00;0.00;;;;;;;14.95;96.99;100647.41;4994446;28;20306;-88
2023/06/16 06:09:30;;;;;;;0.00;0.00;;;;;;;14.84;97.54;100646.19;4993222;28;20215;-88
2023/06/16 06:11:58;;;;;;;0.10;0.10;;;;;;;14.82;98.22;100651.22;4994045;28;20224;-88
2023/06/16 06:14:23;;;;;;;0.00;0.00;;;;;;;15.10;99.08;100651.50;4994201;28;20185;-88
2023/06/16 06:16:49;;;;;;;0.00;0.00;;;;;;;14.95;97.85;100644.66;4994564;28;20192;-88
2023/06/16 06:19:17;;;;;;;0.00;0.00;;;;;;;15.20;98.58;100653.03;4993983;28;20670;-88
2023/06/16 06:22:03;;;;;;;3.60;3.20;;;;;;;15.22;98.54;100650.75;4994411;28;20181;-88
2023/06/16 06:24:28;;;;;;;0.33;0.33;;;;;;;15.18;97.80;100639.59;4993720;28;20193;-88
2023/06/16 06:26:54;;;;;;;0.77;0.77;;;;;;;15.11;99.03;100642.09;4994004;28;20192;-90
2023/06/16 06:29:19;;;;;;;0.10;0.10;;;;;;;15.10;98.89;100640.50;4993990;28;20240;-87
2023/06/16 06:31:44;;;;;;;2.00;1.67;;;;;;;15.11;99.80;100644.84;4995074;28;20201;-88
2023/06/16 06:34:12;;;;;;;2.03;1.93;;;;;;;15.09;99.77;100642.44;4994134;28;20181;-88
2023/06/16 06:36:39;;;;;;;1.00;1.00;;;;;;;15.08;100.00;100634.53;4982820;28;20651;-88
2023/06/16 06:39:05;;;;;;;1.27;1.17;;;;;;;15.06;99.56;100636.81;4988878;28;20215;-88
2023/06/16 06:41:30;;;;;;;0.83;0.83;;;;;;;15.14;99.75;100652.44;4993691;28;20227;-87
2023/06/16 06:43:56;;;;;;;0.53;0.53;;;;;;;15.16;98.77;100648.19;4990724;28;20595;-88
2023/06/16 06:46:21;;;;;;;0.63;0.63;;;;;;;15.24;98.19;100648.47;4992793;28;20192;-87
2023/06/16 06:48:46;;;;;;;0.00;0.00;;;;;;;15.41;98.79;100643.59;5009864;28;20213;-88
2023/06/16 06:51:15;;;;;;;1.57;1.53;;;;;;;15.46;97.89;100639.81;4993587;28;20201;-90
2023/06/16 06:53:42;;;;;;;31.13;1.50;;;;;;;15.55;98.19;100646.06;4993993;28;20177;-88
2023/06/16 06:56:07;;;;;;;0.90;0.90;;;;;;;15.71;98.79;100640.72;5008949;28;20716;-88
2023/06/16 06:58:36;;;;;;;8.97;2.47;;;;;;;15.78;97.75;100638.22;4992993;28;20240;-88
2023/06/16 07:01:01;;;;;;;0.10;0.10;;;;;;;15.72;96.95;100636.81;4993885;28;20671;-88
2023/06/16 07:03:27;;;;;;;0.13;0.13;;;;;;;15.70;96.39;100637.16;4994513;28;20259;-88
2023/06/16 07:05:53;;;;;;;1.03;1.03;;;;;;;15.78;96.89;100632.72;4991783;28;20542;-88
2023/06/16 07:08:21;;;;;;;1.87;1.77;;;;;;;15.83;97.49;100632.50;5008602;28;20193;-88
2023/06/16 07:10:49;;;;;;;1.90;1.80;;;;;;;15.87;96.92;100633.41;4994387;28;20181;-88
2023/06/16 07:13:15;;;;;;;0.17;0.17;;;;;;;15.91;97.97;100630.75;4993492;28;20217;-88
2023/06/16 07:15:40;;;;;;;6.93;5.73;;;;;;;15.95;97.82;100640.78;4989885;28;20184;-89
2023/06/16 07:18:09;;;;;;;0.83;0.83;;;;;;;15.98;98.64;100637.31;4988694;28;20201;-89
2023/06/16 07:20:34;;;;;;;0.57;0.30;;;;;;;16.05;99.51;100640.31;5009767;28;20196;-89
2023/06/16 07:23:00;;;;;;;2.30;2.10;;;;;;;16.08;100.00;100627.00;4995114;28;20594;-88
2023/06/16 07:25:28;;;;;;;4.07;3.67;;;;;;;16.01;99.55;100624.81;4991947;28;20261;-88
2023/06/16 07:27:56;;;;;;;0.67;0.67;;;;;;;15.97;98.85;100632.16;4992828;28;20181;-88
2023/06/16 07:30:21;;;;;;;1.13;1.13;;;;;;;15.91;98.68;100634.34;4992964;28;20287;-88
2023/06/16 07:32:49;;;;;;;2.57;2.40;;;;;;;15.98;99.76;100620.78;4989839;28;20738;-87
2023/06/16 07:35:14;;;;;;;2.67;2.43;;;;;;;15.87;100.00;100627.91;4989843;28;20266;-88
2023/06/16 07:37:40;;;;;;;4.63;3.23;;;;;;;15.86;100.00;100629.03;4992819;28;20375;-88
2023/06/16 07:40:08;;;;;;;3.90;3.60;;;;;;;15.87;100.00;100616.88;4992588;28;20740;-89
2023/06/16 07:42:33;;;;;;;1.43;1.33;;;;;;;15.90;100.00;100610.66;5009156;28;20181;-88
2023/06/16 07:44:59;;;;;;;2.17;2.07;;;;;;;16.00;99.91;100617.69;4992771;28;20177;-89
2023/06/16 07:47:24;;;;;;;2.47;2.27;;;;;;;16.13;99.66;100608.28;4992414;28;20193;-89
2023/06/16 07:49:49;;;;;;;2.43;2.23;;;;;;;16.23;100.00;100618.84;4992745;28;20251;-89
2023/06/16 07:52:15;;;;;;;1.80;1.70;;;;;;;16.21;97.33;100617.59;4992818;28;20225;-88
2023/06/16 07:54:41;;;;;;;2.10;2.00;;;;;;;16.22;97.52;100614.50;4989260;28;20209;-89
2023/06/16 07:57:07;;;;;;;12.50;2.53;;;;;;;16.26;97.65;100611.84;4985264;28;20178;-88
2023/06/16 07:59:32;;;;;;;0.83;0.83;;;;;;;16.27;97.62;100607.94;5008376;28;20225;-89
2023/06/16 08:01:58;;;;;;;1.63;1.53;;;;;;;16.34;97.79;100619.19;5008459;28;20238;-88
2023/06/16 08:04:25;;;;;;;2.10;2.00;;;;;;;16.39;97.25;100612.66;4990311;28;20655;-88
2023/06/16 08:06:50;;;;;;;1.03;1.00;;;;;;;16.42;97.78;100610.00;4991950;28;20685;-89
2023/06/16 08:09:16;;;;;;;0.97;0.97;;;;;;;16.55;98.13;100611.59;4989106;28;20300;-88
2023/06/16 08:11:41;;;;;;;1.50;1.40;;;;;;;16.62;97.19;100609.03;4989030;28;20236;-89
2023/06/16 08:14:06;;;;;;;21.03;1.80;;;;;;;16.72;96.03;100615.25;4992463;28;20193;-88
2023/06/16 08:16:32;;;;;;;1.67;1.57;;;;;;;16.80;95.53;100604.09;4992297;28;20204;-88
2023/06/16 08:18:59;;;;;;;3.27;3.07;;;;;;;16.89;94.61;100601.97;4992300;28;20205;-88
2023/06/16 08:21:24;;;;;;;0.10;0.10;;;;;;;16.91;93.96;100598.88;4992314;28;20192;-88
2023/06/16 08:23:52;;;;;;;6.03;3.50;;;;;;;17.00;93.62;100599.53;4988947;28;20822;-89
2023/06/16 08:26:18;;;;;;;1.17;1.00;;;;;;;17.11;92.44;100597.88;4997194;28;20181;-88
2023/06/16 08:28:44;;;;;;;3.30;1.70;;;;;;;17.22;91.88;100601.75;4992240;28;20204;-88
2023/06/16 08:31:12;;;;;;;0.10;0.10;;;;;;;17.37;91.13;100604.91;4992036;28;20276;-89
2023/06/16 08:33:38;;;;;;;0.00;0.00;;;;;;;17.66;90.24;100596.22;4984238;28;20593;-89
2023/06/16 08:36:03;;;;;;;1.60;0.77;;;;;;;17.89;88.77;100593.66;4991881;28;20177;-90
2023/06/16 08:38:31;;;;;;;0.43;0.43;;;;;;;18.01;85.75;100588.03;4990438;28;20205;-89
2023/06/16 08:40:57;;;;;;;0.00;0.00;;;;;;;18.26;85.68;100585.88;4992188;28;20191;-88
2023/06/16 08:43:22;;;;;;;0.20;0.20;;;;;;;18.46;84.01;100583.94;4992406;28;20265;-89
2023/06/16 08:45:50;;;;;;;2.63;2.43;;;;;;;18.64;82.29;100579.63;5008552;28;20192;-89
2023/06/16 08:48:16;;;;;;;1.60;1.50;;;;;;;18.74;80.57;100572.72;4991527;28;20423;-88
2023/06/16 08:50:41;;;;;;;0.20;0.20;;;;;;;18.92;79.73;100573.88;4991855;28;20562;-88
2023/06/16 08:53:13;;;;;;;1.90;1.57;;;;;;;19.07;78.60;100571.41;4991906;28;20205;-88
2023/06/16 08:55:43;;;;;;;0.67;0.67;;;;;;;19.15;77.59;100571.19;4980670;28;20285;-89
2023/06/16 08:58:11;;;;;;;0.10;0.10;;;;;;;19.25;77.70;100578.91;4987868;28;20200;-90
2023/06/16 09:00:39;;;;;;;2.13;0.73;;;;;;;19.40;77.05;100573.63;5007937;28;20185;-89
2023/06/16 09:03:08;;;;;;;0.57;0.57;;;;;;;19.54;75.89;100560.88;4991523;28;20184;-89
2023/06/16 09:05:34;;;;;;;0.00;0.00;;;;;;;19.72;74.54;100550.06;4991203;28;20569;-89
2023/06/16 09:08:01;;;;;;;2.83;2.63;;;;;;;19.87;71.87;100549.13;4991592;28;20647;-89
2023/06/16 09:10:26;;;;;;;1.53;1.43;;;;;;;19.75;70.04;100540.22;4993634;28;20643;-88
2023/06/16 09:12:52;;;;;;;2.93;2.73;;;;;;;19.61;68.70;100526.91;4997144;28;20212;-89
2023/06/16 09:15:18;;;;;;;4.90;1.77;;;;;;;19.51;70.03;100542.16;4997035;28;20196;-90
2023/06/16 09:17:47;;;;;;;1.47;1.37;;;;;;;19.52;70.43;100545.72;4995178;28;20185;-89
2023/06/16 09:20:23;;;;;;;1.23;1.23;;;;;;;19.52;71.19;100540.97;5015587;28;20669;-88
2023/06/16 09:23:05;;;;;;;1.83;1.20;;;;;;;19.67;70.29;100538.47;4997965;28;20173;-90
2023/06/16 09:25:34;;;;;;;2.60;2.40;;;;;;;19.66;71.58;100550.75;4995062;28;20176;-90
2023/06/16 09:28:09;;;;;;;1.20;1.03;;;;;;;19.57;70.69;100542.69;4995384;28;20182;-89
2023/06/16 09:30:35;;;;;;;1.47;1.37;;;;;;;19.62;70.53;100534.06;4994902;28;20203;-89
2023/06/16 09:33:01;;;;;;;2.03;1.93;;;;;;;19.77;69.85;100533.13;4992648;28;20202;-89
2023/06/16 09:35:28;;;;;;;0.67;0.67;;;;;;;19.90;70.05;100537.28;4993901;28;20181;-89
2023/06/16 09:37:59;;;;;;;0.07;0.07;;;;;;;20.02;67.89;100529.94;4994622;28;20190;-89
2023/06/16 09:40:29;;;;;;;2.40;1.17;;;;;;;20.21;67.56;100527.84;4994972;28;20662;-89
2023/06/16 09:42:59;;;;;;;4.93;1.93;;;;;;;20.31;66.86;100528.38;4994938;28;20177;-90
2023/06/16 09:45:32;;;;;;;7.67;0.43;;;;;;;20.36;67.46;100525.28;4995256;28;20189;-89
2023/06/16 09:48:02;;;;;;;3.50;1.57;;;;;;;20.72;67.33;100524.59;4994662;28;20177;-90
2023/06/16 09:50:30;;;;;;;1.40;1.30;;;;;;;20.86;65.47;100506.50;4995355;28;20651;-89
2023/06/16 09:53:01;;;;;;;1.17;1.07;;;;;;;20.93;64.65;100504.59;4995220;28;20221;-89
2023/06/16 09:55:28;;;;;;;0.90;0.90;;;;;;;21.07;65.34;100507.53;4995356;28;20733;-90
2023/06/16 09:57:54;;;;;;;0.43;0.43;;;;;;;21.33;64.98;100509.41;4994838;28;20184;-90
2023/06/16 10:00:20;;;;;;;1.53;1.43;;;;;;;21.51;64.36;100506.00;4995283;28;20193;-89
2023/06/16 10:02:50;;;;;;;0.43;0.43;;;;;;;21.54;62.51;100492.09;4994875;28;20179;-89
2023/06/16 10:05:19;;;;;;;1.97;1.87;;;;;;;21.69;61.95;100485.47;4995236;28;20179;-90
2023/06/16 10:07:57;;;;;;;1.00;1.00;;;;;;;21.88;61.59;100484.44;4994476;28;20187;-89
2023/06/16 10:10:27;;;;;;;0.43;0.43;;;;;;;21.84;60.71;100475.25;4995373;28;20182;-89
2023/06/16 10:12:55;;;;;;;1.30;1.20;;;;;;;21.94;60.55;100471.75;4994851;28;20210;-90
2023/06/16 10:15:26;;;;;;;0.10;0.10;;;;;;;22.10;58.30;100459.53;4996044;28;20187;-89
2023/06/16 10:17:53;;;;;;;0.13;0.13;;;;;;;22.11;56.02;100459.16;4994934;28;20200;-88
2023/06/16 10:21:06;;;;;;;0.70;0.70;;;;;;;22.11;56.76;100461.16;4994836;28;20193;-89
2023/06/16 10:23:31;;;;;;;0.97;0.97;;;;;;;22.07;56.58;100455.56;4994304;28;20183;-89
2023/06/16 10:25:57;;;;;;;0.20;0.20;;;;;;;22.12;55.80;100457.16;4994666;28;20277;-89
2023/06/16 10:28:30;;;;;;;1.83;1.67;;;;;;;22.15;57.69;100461.97;5010482;28;20201;-90
2023/06/16 10:30:56;;;;;;;0.47;0.47;;;;;;;22.02;58.33;100457.91;4993745;28;20194;-89
2023/06/16 10:33:24;;;;;;;0.57;0.57;;;;;;;22.09;58.04;100461.53;4994277;28;20624;-90
2023/06/16 10:35:55;;;;;;;1.60;1.50;;;;;;;22.18;56.86;100452.84;4991306;28;20660;-89
2023/06/16 10:38:35;;;;;;;0.50;0.50;;;;;;;22.18;56.96;100444.50;4993232;28;20212;-90
2023/06/16 10:44:29;;;;;;;1.47;1.37;;;;;;;22.33;57.87;100454.50;4991919;28;20207;-90
2023/06/16 10:47:25;;;;;;;1.43;1.33;;;;;;;22.28;57.86;100443.75;4988604;28;20188;-89
2023/06/16 10:50:04;;;;;;;3.67;3.37;;;;;;;22.26;59.78;100457.25;4989043;28;20252;-90
2023/06/16 10:52:30;;;;;;;0.10;0.10;;;;;;;22.50;58.69;100452.97;4994643;28;20203;-90
2023/06/16 10:54:57;;;;;;;1.67;1.57;;;;;;;22.64;58.30;100455.03;5010973;28;20185;-90
2023/06/16 10:57:26;;;;;;;2.87;2.67;;;;;;;22.61;58.91;100450.25;4994545;28;20189;-88
2023/06/16 10:59:53;;;;;;;1.23;1.13;;;;;;;22.61;58.77;100455.81;4991259;28;20206;-89
2023/06/16 11:02:22;;;;;;;0.30;0.30;;;;;;;22.43;58.83;100461.31;4994246;28;20180;-89
2023/06/16 11:05:07;;;;;;;0.93;0.93;;;;;;;22.20;59.29;100459.63;4993943;28;20243;-89
2023/06/16 11:07:32;;;;;;;1.23;0.93;;;;;;;22.12;57.90;100455.19;4993234;28;20203;-89
2023/06/16 11:09:58;;;;;;;0.77;0.77;;;;;;;22.03;56.65;100454.72;4993665;28;20285;-90
2023/06/16 11:12:27;;;;;;;1.80;1.70;;;;;;;22.03;57.98;100457.50;4993616;28;20209;-90
2023/06/16 11:14:53;;;;;;;0.27;0.27;;;;;;;21.93;58.10;100455.44;4993713;28;20190;-89
2023/06/16 11:17:19;;;;;;;0.10;0.10;;;;;;;22.02;57.47;100453.13;4990934;28;20182;-89
2023/06/16 11:19:53;;;;;;;0.60;0.60;;;;;;;22.11;58.30;100455.56;4993510;28;20859;-89
2023/06/16 11:22:30;;;;;;;0.03;0.03;;;;;;;22.43;60.84;100464.91;4994010;28;20187;-90
2023/06/16 11:24:56;;;;;;;1.30;1.20;;;;;;;22.59;58.72;100449.84;4993626;28;20259;-90
2023/06/16 11:27:25;;;;;;;1.60;1.00;;;;;;;22.49;59.05;100454.97;4993430;28;20719;-89
2023/06/16 11:29:54;;;;;;;0.50;0.50;;;;;;;22.57;60.02;100450.25;4991659;28;20215;-89